sensor_id;sensor_type;location;lat;lon;timestamp;pressure;altitude;pressure_sealevel;temperature;humidity
7754;BME280;3921;42.266;23.122;2022-07-29T02:09:35;95307.75;;;20.19;71.15
7754;BME280;3921;42.266;23.122;2022-07-29T02:12:22;95327.03;;;20.06;71.25
7754;BME280;3921;42.266;23.122;2022-07-29T02:15:18;95358.69;;;20.21;71.11
7754;BME280;3921;42.266;23.122;2022-07-29T02:18:05;95395.16;;;20.41;71.05
7754;BME280;3921;42.266;23.122;2022-07-29T04:18:22;95286.91;;;19.14;71.98
7754;BME280;3921;42.266;23.122;2022-07-29T04:20:56;95274.63;;;19.03;71.58
7754;BME280;3921;42.266;23.122;2022-07-29T04:23:29;95249.16;;;19.03;71.74
7754;BME280;3921;42.266;23.122;2022-07-29T04:25:59;95242.25;;;19.06;71.39
7754;BME280;3921;42.266;23.122;2022-07-29T04:28:31;95335.41;;;19.51;71.98
7754;BME280;3921;42.266;23.122;2022-07-29T04:31:05;95795.31;;;22.50;72.63
7754;BME280;3921;42.266;23.122;2022-07-29T04:33:35;95311.31;;;19.38;72.68
7754;BME280;3921;42.266;23.122;2022-07-29T04:38:53;95353.50;;;19.66;73.73
7754;BME280;3921;42.266;23.122;2022-07-29T04:41:22;95328.97;;;19.43;73.45
7754;BME280;3921;42.266;23.122;2022-07-29T04:43:50;95310.22;;;19.25;72.83
7754;BME280;3921;42.266;23.122;2022-07-29T04:46:18;95758.81;;;22.27;73.35
7754;BME280;3921;42.266;23.122;2022-07-29T04:48:50;95296.13;;;19.36;73.04
7754;BME280;3921;42.266;23.122;2022-07-29T04:51:18;95524.44;;;20.80;73.70
7754;BME280;3921;42.266;23.122;2022-07-29T04:53:46;95492.16;;;20.60;74.00
7754;BME280;3921;42.266;23.122;2022-07-29T04:56:20;95305.19;;;19.23;74.04
7754;BME280;3921;42.266;23.122;2022-07-29T04:58:50;95495.97;;;20.71;74.59
7754;BME280;3921;42.266;23.122;2022-07-29T05:01:26;95697.03;;;21.99;74.91
7754;BME280;3921;42.266;23.122;2022-07-29T05:03:55;95622.88;;;21.63;84.00
7754;BME280;3921;42.266;23.122;2022-07-29T05:06:29;95308.13;;;19.53;85.37
7754;BME280;3921;42.266;23.122;2022-07-29T05:12:00;95663.13;;;21.77;88.09
7754;BME280;3921;42.266;23.122;2022-07-29T05:50:38;95320.09;;;19.72;88.23
7754;BME280;3921;42.266;23.122;2022-07-29T06:05:26;95794.78;;;22.78;87.94
7754;BME280;3921;42.266;23.122;2022-07-29T06:07:58;95316.75;;;19.90;88.21
7754;BME280;3921;42.266;23.122;2022-07-29T06:10:25;95285.38;;;19.69;88.50
7754;BME280;3921;42.266;23.122;2022-07-29T06:15:28;95267.53;;;19.69;87.21
7754;BME280;3921;42.266;23.122;2022-07-29T06:17:55;95700.69;;;22.47;87.52
7754;BME280;3921;42.266;23.122;2022-07-29T06:20:23;95273.94;;;19.78;87.39
7754;BME280;3921;42.266;23.122;2022-07-29T06:22:52;95809.88;;;23.19;86.36
7754;BME280;3921;42.266;23.122;2022-07-29T06:25:21;95310.78;;;20.08;86.05
7754;BME280;3921;42.266;23.122;2022-07-29T06:27:49;95355.16;;;20.42;85.89
7754;BME280;3921;42.266;23.122;2022-07-29T06:30:22;95381.09;;;20.52;85.78
7754;BME280;3921;42.266;23.122;2022-07-29T06:32:55;95427.94;;;20.87;85.40
7754;BME280;3921;42.266;23.122;2022-07-29T06:35:23;95553.22;;;21.58;85.42
7754;BME280;3921;42.266;23.122;2022-07-29T06:37:52;95432.00;;;20.91;84.35
7754;BME280;3921;42.266;23.122;2022-07-29T06:40:21;95745.53;;;22.90;84.00
7754;BME280;3921;42.266;23.122;2022-07-29T06:43:06;95744.31;;;22.97;83.26
7754;BME280;3921;42.266;23.122;2022-07-29T07:08:47;95381.06;;;20.71;84.06
7754;BME280;3921;42.266;23.122;2022-07-29T07:11:16;95340.53;;;20.64;84.20
7754;BME280;3921;42.266;23.122;2022-07-29T07:13:58;95365.97;;;20.66;83.75
7754;BME280;3921;42.266;23.122;2022-07-29T07:16:31;95727.28;;;22.96;83.75
7754;BME280;3921;42.266;23.122;2022-07-29T14:30:10;95077.50;;;29.25;43.42
7754;BME280;3921;42.266;23.122;2022-07-29T14:33:02;95261.06;;;30.48;42.39
7754;BME280;3921;42.266;23.122;2022-07-29T14:38:14;95099.31;;;29.42;40.13
7754;BME280;3921;42.266;23.122;2022-07-29T14:55:52;95068.25;;;29.52;41.58
7754;BME280;3921;42.266;23.122;2022-07-29T14:59:02;95077.44;;;29.56;42.09
7754;BME280;3921;42.266;23.122;2022-07-29T15:01:50;95280.16;;;30.95;42.04
7754;BME280;3921;42.266;23.122;2022-07-29T15:04:42;95252.34;;;30.78;41.64
7754;BME280;3921;42.266;23.122;2022-07-29T15:30:30;95472.72;;;32.05;41.35
7754;BME280;3921;42.266;23.122;2022-07-29T15:32:57;95314.56;;;31.07;41.43
7754;BME280;3921;42.266;23.122;2022-07-29T15:35:30;95433.25;;;31.63;42.12
7754;BME280;3921;42.266;23.122;2022-07-29T17:20:40;95409.59;;;29.03;46.69
7754;BME280;3921;42.266;23.122;2022-07-29T17:23:07;95385.56;;;28.80;46.82
7754;BME280;3921;42.266;23.122;2022-07-29T17:25:34;95184.06;;;27.38;47.02
7754;BME280;3921;42.266;23.122;2022-07-29T17:28:02;95450.03;;;29.04;46.94
7754;BME280;3921;42.266;23.122;2022-07-29T17:30:29;95259.72;;;27.83;46.57
7754;BME280;3921;42.266;23.122;2022-07-29T17:32:56;95303.00;;;28.02;46.76
7754;BME280;3921;42.266;23.122;2022-07-29T17:35:23;95375.53;;;28.44;46.71
7754;BME280;3921;42.266;23.122;2022-07-29T17:38:09;95376.13;;;28.36;46.53
7754;BME280;3921;42.266;23.122;2022-07-29T17:40:36;95271.00;;;27.71;46.85
7754;BME280;3921;42.266;23.122;2022-07-29T17:43:03;95512.22;;;29.14;46.28
7754;BME280;3921;42.266;23.122;2022-07-29T17:45:33;95096.34;;;26.59;45.46
7754;BME280;3921;42.266;23.122;2022-07-29T17:48:01;95434.38;;;28.63;45.54
7754;BME280;3921;42.266;23.122;2022-07-29T17:50:28;95066.84;;;26.41;45.50
7754;BME280;3921;42.266;23.122;2022-07-29T17:52:55;95329.44;;;27.94;46.40
7754;BME280;3921;42.266;23.122;2022-07-29T17:55:24;95067.94;;;26.26;45.47
7754;BME280;3921;42.266;23.122;2022-07-29T17:57:51;95341.03;;;28.00;44.88
7754;BME280;3921;42.266;23.122;2022-07-29T18:00:18;95294.88;;;27.50;45.06
7754;BME280;3921;42.266;23.122;2022-07-29T18:02:47;95451.06;;;28.58;44.89
7754;BME280;3921;42.266;23.122;2022-07-29T18:05:17;95221.28;;;26.89;44.32
7754;BME280;3921;42.266;23.122;2022-07-29T18:07:50;95418.53;;;28.11;44.71
7754;BME280;3921;42.266;23.122;2022-07-29T18:10:26;95438.25;;;28.23;44.77
7754;BME280;3921;42.266;23.122;2022-07-29T18:13:00;95089.88;;;25.96;44.70
7754;BME280;3921;42.266;23.122;2022-07-29T18:15:31;95470.88;;;28.13;45.00
7754;BME280;3921;42.266;23.122;2022-07-29T18:18:01;95100.88;;;25.98;44.85
7754;BME280;3921;42.266;23.122;2022-07-29T18:20:34;95057.47;;;25.69;44.11
7754;BME280;3921;42.266;23.122;2022-07-29T18:23:03;95097.34;;;25.88;44.57
7754;BME280;3921;42.266;23.122;2022-07-29T18:25:43;95187.00;;;26.29;44.68
7754;BME280;3921;42.266;23.122;2022-07-29T18:28:19;95387.66;;;27.52;44.27
7754;BME280;3921;42.266;23.122;2022-07-29T18:31:02;95305.00;;;26.96;44.47
7754;BME280;3921;42.266;23.122;2022-07-29T18:33:37;95462.63;;;27.86;44.56
7754;BME280;3921;42.266;23.122;2022-07-29T18:36:15;95062.22;;;25.39;44.58
7754;BME280;3921;42.266;23.122;2022-07-29T18:38:56;95302.13;;;26.88;44.99
7754;BME280;3921;42.266;23.122;2022-07-29T18:41:27;95089.88;;;25.48;45.10
7754;BME280;3921;42.266;23.122;2022-07-29T18:43:58;95173.72;;;25.87;44.77
7754;BME280;3921;42.266;23.122;2022-07-29T18:46:32;95311.50;;;26.89;45.11
7754;BME280;3921;42.266;23.122;2022-07-29T18:49:19;95465.91;;;27.76;44.96
7754;BME280;3921;42.266;23.122;2022-07-29T18:51:48;95446.56;;;27.58;44.92
7754;BME280;3921;42.266;23.122;2022-07-29T18:54:22;95409.94;;;27.42;45.04
7754;BME280;3921;42.266;23.122;2022-07-29T18:56:54;95499.97;;;27.82;45.13
7754;BME280;3921;42.266;23.122;2022-07-29T18:59:28;95316.69;;;26.65;45.17
7754;BME280;3921;42.266;23.122;2022-07-29T19:02:04;95339.97;;;26.87;45.44
7754;BME280;3921;42.266;23.122;2022-07-29T19:04:36;95132.22;;;25.55;45.85
7754;BME280;3921;42.266;23.122;2022-07-29T19:07:07;95158.44;;;25.60;46.80
7754;BME280;3921;42.266;23.122;2022-07-29T19:09:38;95571.13;;;28.08;47.10
7754;BME280;3921;42.266;23.122;2022-07-29T19:12:13;95193.84;;;25.69;49.88
7754;BME280;3921;42.266;23.122;2022-07-29T19:14:44;95451.53;;;27.26;49.13
7754;BME280;3921;42.266;23.122;2022-07-29T19:17:19;95159.97;;;25.26;49.17
7754;BME280;3921;42.266;23.122;2022-07-29T19:19:57;95144.16;;;25.20;49.00
7754;BME280;3921;42.266;23.122;2022-07-29T19:22:44;95249.22;;;25.75;48.76
7754;BME280;3921;42.266;23.122;2022-07-29T19:25:30;95193.72;;;25.22;48.40
7754;BME280;3921;42.266;23.122;2022-07-29T19:28:08;95466.63;;;26.83;48.43
7754;BME280;3921;42.266;23.122;2022-07-29T19:30:53;95151.66;;;24.97;48.93
7754;BME280;3921;42.266;23.122;2022-07-29T19:33:35;95156.06;;;24.82;48.11
7754;BME280;3921;42.266;23.122;2022-07-29T19:36:18;95101.94;;;24.47;47.50
7754;BME280;3921;42.266;23.122;2022-07-29T19:38:46;95296.66;;;25.71;49.07
7754;BME280;3921;42.266;23.122;2022-07-29T19:41:13;95174.50;;;25.02;47.88
7754;BME280;3921;42.266;23.122;2022-07-29T19:43:52;95194.00;;;25.04;48.06
7754;BME280;3921;42.266;23.122;2022-07-29T19:46:29;95349.00;;;26.08;47.77
7754;BME280;3921;42.266;23.122;2022-07-29T19:49:06;95120.03;;;24.58;47.92
7754;BME280;3921;42.266;23.122;2022-07-29T19:51:36;95375.78;;;26.18;48.87
7754;BME280;3921;42.266;23.122;2022-07-29T19:54:22;95296.75;;;25.69;48.46
7754;BME280;3921;42.266;23.122;2022-07-29T19:57:00;95342.53;;;26.03;48.98
7754;BME280;3921;42.266;23.122;2022-07-29T19:59:34;95491.97;;;26.89;49.16
7754;BME280;3921;42.266;23.122;2022-07-29T20:02:10;95358.59;;;26.06;50.14
7754;BME280;3921;42.266;23.122;2022-07-29T20:04:43;95112.72;;;24.40;49.61
7754;BME280;3921;42.266;23.122;2022-07-29T20:07:17;95158.13;;;24.77;49.05
7754;BME280;3921;42.266;23.122;2022-07-29T20:09:50;95165.94;;;24.76;49.97
7754;BME280;3921;42.266;23.122;2022-07-29T20:12:21;95189.06;;;24.88;51.12
7754;BME280;3921;42.266;23.122;2022-07-29T20:14:54;95391.88;;;26.09;51.04
7754;BME280;3921;42.266;23.122;2022-07-29T20:17:26;95377.03;;;26.00;51.91
7754;BME280;3921;42.266;23.122;2022-07-29T20:20:07;95567.53;;;27.15;52.12
7754;BME280;3921;42.266;23.122;2022-07-29T20:22:39;95128.94;;;24.40;52.35
7754;BME280;3921;42.266;23.122;2022-07-29T20:25:12;95421.84;;;26.10;52.99
7754;BME280;3921;42.266;23.122;2022-07-29T20:27:43;95194.44;;;24.73;53.03
7754;BME280;3921;42.266;23.122;2022-07-29T20:30:29;95422.34;;;26.15;53.25
7754;BME280;3921;42.266;23.122;2022-07-29T20:33:04;95476.81;;;26.35;53.86
7754;BME280;3921;42.266;23.122;2022-07-29T20:35:32;95161.09;;;24.46;53.43
7754;BME280;3921;42.266;23.122;2022-07-29T20:38:05;95506.19;;;26.58;53.91
7754;BME280;3921;42.266;23.122;2022-07-29T20:40:37;95339.97;;;25.52;54.56
7754;BME280;3921;42.266;23.122;2022-07-29T20:43:09;95464.69;;;26.11;54.70
7754;BME280;3921;42.266;23.122;2022-07-29T20:45:44;95546.69;;;26.68;54.45
7754;BME280;3921;42.266;23.122;2022-07-29T20:48:17;95103.06;;;23.91;54.24
7754;BME280;3921;42.266;23.122;2022-07-29T20:50:57;95197.00;;;24.33;54.43
7754;BME280;3921;42.266;23.122;2022-07-29T20:53:27;95199.66;;;24.31;53.60
7754;BME280;3921;42.266;23.122;2022-07-29T20:55:54;95142.28;;;23.93;53.65
7754;BME280;3921;42.266;23.122;2022-07-29T20:58:21;95187.03;;;24.28;54.13
7754;BME280;3921;42.266;23.122;2022-07-29T21:00:52;95356.03;;;25.30;54.50
7754;BME280;3921;42.266;23.122;2022-07-29T21:03:22;95527.19;;;26.39;55.05
7754;BME280;3921;42.266;23.122;2022-07-29T21:05:52;95232.09;;;24.47;55.00
7754;BME280;3921;42.266;23.122;2022-07-29T21:08:25;95478.38;;;25.99;55.56
7754;BME280;3921;42.266;23.122;2022-07-29T21:10:59;95534.41;;;26.21;55.07
7754;BME280;3921;42.266;23.122;2022-07-29T21:13:28;95473.66;;;25.93;55.08
7754;BME280;3921;42.266;23.122;2022-07-29T21:16:07;95282.38;;;24.63;55.25
7754;BME280;3921;42.266;23.122;2022-07-29T21:18:38;95496.81;;;26.06;55.32
7754;BME280;3921;42.266;23.122;2022-07-29T21:21:18;95506.28;;;26.05;55.54
7754;BME280;3921;42.266;23.122;2022-07-29T21:23:51;95200.75;;;24.15;54.87
7754;BME280;3921;42.266;23.122;2022-07-29T21:26:21;95188.22;;;24.10;54.91
7754;BME280;3921;42.266;23.122;2022-07-29T21:28:48;95204.75;;;24.19;55.20
7754;BME280;3921;42.266;23.122;2022-07-29T21:31:21;95202.06;;;24.07;55.81
7754;BME280;3921;42.266;23.122;2022-07-29T21:39:01;95471.09;;;25.66;57.17
7754;BME280;3921;42.266;23.122;2022-07-29T21:42:06;95227.72;;;24.07;57.61
7754;BME280;3921;42.266;23.122;2022-07-29T21:44:28;95587.16;;;26.28;56.89
7754;BME280;3921;42.266;23.122;2022-07-29T21:46:57;95302.53;;;24.43;57.88
7754;BME280;3921;42.266;23.122;2022-07-29T21:49:31;95427.38;;;25.13;57.37
7754;BME280;3921;42.266;23.122;2022-07-29T21:52:08;95408.13;;;25.06;56.94
7754;BME280;3921;42.266;23.122;2022-07-29T21:54:38;95272.28;;;24.06;56.64
7754;BME280;3921;42.266;23.122;2022-07-29T21:57:05;95312.47;;;24.34;56.03
7754;BME280;3921;42.266;23.122;2022-07-29T21:59:37;95459.72;;;25.30;55.95
7754;BME280;3921;42.266;23.122;2022-07-29T22:02:19;95355.19;;;24.50;55.46
7754;BME280;3921;42.266;23.122;2022-07-29T22:04:51;95209.69;;;23.68;55.31
7754;BME280;3921;42.266;23.122;2022-07-29T22:07:18;95197.31;;;23.60;56.05
7754;BME280;3921;42.266;23.122;2022-07-29T22:09:45;95169.81;;;23.35;56.60
7754;BME280;3921;42.266;23.122;2022-07-29T22:12:15;95406.25;;;24.81;56.54
7754;BME280;3921;42.266;23.122;2022-07-29T22:14:50;95198.72;;;23.51;56.68
7754;BME280;3921;42.266;23.122;2022-07-29T22:17:26;95235.88;;;23.58;56.57
7754;BME280;3921;42.266;23.122;2022-07-29T22:20:01;95202.38;;;23.33;56.58
7754;BME280;3921;42.266;23.122;2022-07-29T22:22:29;95601.72;;;25.89;56.69
7754;BME280;3921;42.266;23.122;2022-07-29T22:24:57;95577.94;;;25.59;57.08
7754;BME280;3921;42.266;23.122;2022-07-29T22:27:46;95651.53;;;26.15;57.41
7754;BME280;3921;42.266;23.122;2022-07-29T22:30:19;95347.78;;;24.17;57.08
7754;BME280;3921;42.266;23.122;2022-07-29T22:32:50;95343.97;;;24.09;57.34
7754;BME280;3921;42.266;23.122;2022-07-29T22:35:20;95399.84;;;24.47;57.38
7754;BME280;3921;42.266;23.122;2022-07-29T22:37:49;95297.44;;;23.73;57.10
7754;BME280;3921;42.266;23.122;2022-07-29T22:40:25;95450.72;;;24.69;56.87
7754;BME280;3921;42.266;23.122;2022-07-29T22:42:52;95299.38;;;23.69;57.08
7754;BME280;3921;42.266;23.122;2022-07-29T22:45:19;95250.00;;;23.23;57.57
7754;BME280;3921;42.266;23.122;2022-07-29T22:47:46;95664.97;;;25.93;57.59
7754;BME280;3921;42.266;23.122;2022-07-29T22:50:15;95243.59;;;23.30;58.14
7754;BME280;3921;42.266;23.122;2022-07-29T22:52:42;95653.38;;;25.59;58.61
7754;BME280;3921;42.266;23.122;2022-07-29T22:55:10;95333.44;;;23.71;58.84
7754;BME280;3921;42.266;23.122;2022-07-29T22:57:37;95353.44;;;23.80;58.80
7754;BME280;3921;42.266;23.122;2022-07-29T23:00:06;95238.91;;;23.22;58.81
7754;BME280;3921;42.266;23.122;2022-07-29T23:02:34;95443.94;;;24.25;59.54
7754;BME280;3921;42.266;23.122;2022-07-29T23:05:10;95299.06;;;23.45;59.56
7754;BME280;3921;42.266;23.122;2022-07-29T23:07:42;95161.44;;;22.60;58.44
7754;BME280;3921;42.266;23.122;2022-07-29T23:10:25;95244.50;;;23.15;58.81
7754;BME280;3921;42.266;23.122;2022-07-29T23:12:54;95151.38;;;22.57;59.41
7754;BME280;3921;42.266;23.122;2022-07-29T23:15:23;95229.06;;;22.86;59.27
7754;BME280;3921;42.266;23.122;2022-07-29T23:17:57;95471.69;;;24.49;59.14
7754;BME280;3921;42.266;23.122;2022-07-29T23:20:31;95432.84;;;24.25;59.61
7754;BME280;3921;42.266;23.122;2022-07-29T23:23:03;95254.03;;;23.13;59.79
7754;BME280;3921;42.266;23.122;2022-07-29T23:25:32;95214.50;;;22.87;59.86
7754;BME280;3921;42.266;23.122;2022-07-29T23:28:07;95316.66;;;23.23;59.95
7754;BME280;3921;42.266;23.122;2022-07-29T23:30:35;95182.34;;;22.52;60.37
7754;BME280;3921;42.266;23.122;2022-07-29T23:33:04;95354.13;;;23.54;60.29
7754;BME280;3921;42.266;23.122;2022-07-29T23:35:40;95437.47;;;24.05;60.92
7754;BME280;3921;42.266;23.122;2022-07-29T23:38:10;95551.63;;;24.71;61.01
7754;BME280;3921;42.266;23.122;2022-07-29T23:40:37;95494.31;;;24.42;60.91
7754;BME280;3921;42.266;23.122;2022-07-29T23:43:08;95524.31;;;24.56;60.78
7754;BME280;3921;42.266;23.122;2022-07-29T23:45:44;95279.47;;;23.16;60.98
7754;BME280;3921;42.266;23.122;2022-07-29T23:48:37;95406.09;;;23.72;61.11
7754;BME280;3921;42.266;23.122;2022-07-29T23:51:08;95307.03;;;23.12;61.18
7754;BME280;3921;42.266;23.122;2022-07-29T23:53:41;95565.84;;;24.77;61.50
7754;BME280;3921;42.266;23.122;2022-07-29T23:56:11;95231.78;;;22.69;61.46
7754;BME280;3921;42.266;23.122;2022-07-29T23:58:51;95488.91;;;24.32;60.71
